sensor_id;sensor_type;location;lat;lon;timestamp;P1;durP1;ratioP1;P2;durP2;ratioP2
56477;SDS011;42382;53.210;5.772;2023-04-24T00:02:03;3.17;;;2.28;;
56477;SDS011;42382;53.210;5.772;2023-04-24T00:04:31;2.78;;;1.60;;
56477;SDS011;42382;53.210;5.772;2023-04-24T00:06:57;3.83;;;1.95;;
56477;SDS011;42382;53.210;5.772;2023-04-24T00:09:25;4.47;;;2.45;;
56477;SDS011;42382;53.210;5.772;2023-04-24T00:11:51;4.20;;;2.20;;
56477;SDS011;42382;53.210;5.772;2023-04-24T00:14:17;4.10;;;2.08;;
56477;SDS011;42382;53.210;5.772;2023-04-24T00:16:43;3.88;;;2.15;;
56477;SDS011;42382;53.210;5.772;2023-04-24T00:19:08;3.97;;;2.75;;
56477;SDS011;42382;53.210;5.772;2023-04-24T00:21:34;3.95;;;2.20;;
56477;SDS011;42382;53.210;5.772;2023-04-24T00:24:00;2.00;;;1.80;;
56477;SDS011;42382;53.210;5.772;2023-04-24T00:26:25;2.58;;;2.13;;
56477;SDS011;42382;53.210;5.772;2023-04-24T00:28:51;5.35;;;2.88;;
56477;SDS011;42382;53.210;5.772;2023-04-24T00:31:16;3.97;;;2.70;;
56477;SDS011;42382;53.210;5.772;2023-04-24T00:33:42;2.80;;;2.40;;
56477;SDS011;42382;53.210;5.772;2023-04-24T00:36:08;5.65;;;2.88;;
56477;SDS011;42382;53.210;5.772;2023-04-24T00:38:34;5.30;;;3.17;;
56477;SDS011;42382;53.210;5.772;2023-04-24T00:41:00;3.90;;;2.92;;
56477;SDS011;42382;53.210;5.772;2023-04-24T00:43:26;4.30;;;3.20;;
56477;SDS011;42382;53.210;5.772;2023-04-24T00:45:51;5.97;;;3.83;;
56477;SDS011;42382;53.210;5.772;2023-04-24T00:48:17;3.85;;;3.28;;
56477;SDS011;42382;53.210;5.772;2023-04-24T00:50:43;3.53;;;2.63;;
56477;SDS011;42382;53.210;5.772;2023-04-24T00:53:10;5.78;;;4.60;;
56477;SDS011;42382;53.210;5.772;2023-04-24T00:55:35;5.18;;;3.45;;
56477;SDS011;42382;53.210;5.772;2023-04-24T00:58:02;3.65;;;3.30;;
56477;SDS011;42382;53.210;5.772;2023-04-24T01:00:28;4.30;;;3.28;;
56477;SDS011;42382;53.210;5.772;2023-04-24T01:02:54;4.45;;;3.55;;
56477;SDS011;42382;53.210;5.772;2023-04-24T01:05:20;4.70;;;3.72;;
56477;SDS011;42382;53.210;5.772;2023-04-24T01:07:46;6.15;;;4.50;;
56477;SDS011;42382;53.210;5.772;2023-04-24T01:10:14;5.03;;;3.47;;
56477;SDS011;42382;53.210;5.772;2023-04-24T01:12:40;6.38;;;3.75;;
56477;SDS011;42382;53.210;5.772;2023-04-24T01:15:06;5.78;;;3.67;;
56477;SDS011;42382;53.210;5.772;2023-04-24T01:17:32;5.40;;;4.32;;
56477;SDS011;42382;53.210;5.772;2023-04-24T01:19:59;4.50;;;3.97;;
56477;SDS011;42382;53.210;5.772;2023-04-24T01:22:25;5.18;;;3.90;;
56477;SDS011;42382;53.210;5.772;2023-04-24T01:24:52;4.93;;;3.83;;
56477;SDS011;42382;53.210;5.772;2023-04-24T01:27:18;4.28;;;3.70;;
56477;SDS011;42382;53.210;5.772;2023-04-24T01:29:45;5.82;;;4.60;;
56477;SDS011;42382;53.210;5.772;2023-04-24T01:32:12;5.60;;;4.90;;
56477;SDS011;42382;53.210;5.772;2023-04-24T01:34:38;5.75;;;4.80;;
56477;SDS011;42382;53.210;5.772;2023-04-24T01:37:04;5.30;;;4.80;;
56477;SDS011;42382;53.210;5.772;2023-04-24T01:39:30;4.97;;;4.47;;
56477;SDS011;42382;53.210;5.772;2023-04-24T01:41:56;6.93;;;5.07;;
56477;SDS011;42382;53.210;5.772;2023-04-24T01:44:22;5.85;;;4.50;;
56477;SDS011;42382;53.210;5.772;2023-04-24T01:46:48;6.07;;;4.88;;
56477;SDS011;42382;53.210;5.772;2023-04-24T01:49:13;5.50;;;4.80;;
56477;SDS011;42382;53.210;5.772;2023-04-24T01:51:39;6.60;;;4.40;;
56477;SDS011;42382;53.210;5.772;2023-04-24T01:54:05;6.20;;;4.72;;
56477;SDS011;42382;53.210;5.772;2023-04-24T01:56:31;7.53;;;5.65;;
56477;SDS011;42382;53.210;5.772;2023-04-24T01:58:59;6.53;;;4.43;;
56477;SDS011;42382;53.210;5.772;2023-04-24T02:01:27;5.88;;;4.85;;
56477;SDS011;42382;53.210;5.772;2023-04-24T02:03:57;5.88;;;4.60;;
56477;SDS011;42382;53.210;5.772;2023-04-24T02:06:23;7.03;;;4.20;;
56477;SDS011;42382;53.210;5.772;2023-04-24T02:08:48;6.50;;;4.18;;
56477;SDS011;42382;53.210;5.772;2023-04-24T02:11:14;7.10;;;4.63;;
56477;SDS011;42382;53.210;5.772;2023-04-24T02:13:40;4.53;;;3.45;;
56477;SDS011;42382;53.210;5.772;2023-04-24T02:16:05;5.72;;;3.33;;
56477;SDS011;42382;53.210;5.772;2023-04-24T02:18:31;6.43;;;3.70;;
56477;SDS011;42382;53.210;5.772;2023-04-24T02:20:56;5.93;;;5.32;;
56477;SDS011;42382;53.210;5.772;2023-04-24T02:23:22;6.60;;;5.70;;
56477;SDS011;42382;53.210;5.772;2023-04-24T02:25:47;7.68;;;5.85;;
56477;SDS011;42382;53.210;5.772;2023-04-24T02:28:13;7.03;;;4.53;;
56477;SDS011;42382;53.210;5.772;2023-04-24T02:30:39;3.88;;;2.60;;
56477;SDS011;42382;53.210;5.772;2023-04-24T02:33:04;3.33;;;2.33;;
56477;SDS011;42382;53.210;5.772;2023-04-24T02:35:33;2.65;;;1.60;;
56477;SDS011;42382;53.210;5.772;2023-04-24T02:37:59;2.25;;;1.20;;
56477;SDS011;42382;53.210;5.772;2023-04-24T02:40:25;3.38;;;0.90;;
56477;SDS011;42382;53.210;5.772;2023-04-24T02:42:50;2.22;;;1.25;;
56477;SDS011;42382;53.210;5.772;2023-04-24T02:45:16;3.03;;;1.45;;
56477;SDS011;42382;53.210;5.772;2023-04-24T02:47:41;2.58;;;1.98;;
56477;SDS011;42382;53.210;5.772;2023-04-24T02:50:07;3.47;;;2.20;;
56477;SDS011;42382;53.210;5.772;2023-04-24T02:52:33;3.40;;;2.58;;
56477;SDS011;42382;53.210;5.772;2023-04-24T02:54:58;3.92;;;2.63;;
56477;SDS011;42382;53.210;5.772;2023-04-24T02:57:24;2.17;;;1.88;;
56477;SDS011;42382;53.210;5.772;2023-04-24T02:59:50;4.13;;;2.20;;
56477;SDS011;42382;53.210;5.772;2023-04-24T03:02:15;4.25;;;1.42;;
56477;SDS011;42382;53.210;5.772;2023-04-24T03:04:41;2.28;;;0.88;;
56477;SDS011;42382;53.210;5.772;2023-04-24T03:07:09;2.67;;;0.80;;
56477;SDS011;42382;53.210;5.772;2023-04-24T03:09:35;2.00;;;0.57;;
56477;SDS011;42382;53.210;5.772;2023-04-24T03:12:00;1.80;;;0.40;;
56477;SDS011;42382;53.210;5.772;2023-04-24T03:14:26;2.25;;;0.60;;
56477;SDS011;42382;53.210;5.772;2023-04-24T03:16:51;2.92;;;0.80;;
56477;SDS011;42382;53.210;5.772;2023-04-24T03:19:17;2.15;;;0.93;;
56477;SDS011;42382;53.210;5.772;2023-04-24T03:21:42;1.73;;;0.93;;
56477;SDS011;42382;53.210;5.772;2023-04-24T03:24:08;2.38;;;0.82;;
56477;SDS011;42382;53.210;5.772;2023-04-24T03:26:34;4.00;;;1.50;;
56477;SDS011;42382;53.210;5.772;2023-04-24T03:29:00;3.10;;;1.63;;
56477;SDS011;42382;53.210;5.772;2023-04-24T03:31:26;5.72;;;2.85;;
56477;SDS011;42382;53.210;5.772;2023-04-24T03:33:51;4.45;;;2.85;;
56477;SDS011;42382;53.210;5.772;2023-04-24T03:36:17;4.95;;;3.70;;
56477;SDS011;42382;53.210;5.772;2023-04-24T03:38:44;3.92;;;3.30;;
56477;SDS011;42382;53.210;5.772;2023-04-24T03:41:10;3.95;;;2.95;;
56477;SDS011;42382;53.210;5.772;2023-04-24T03:43:36;3.65;;;2.50;;
56477;SDS011;42382;53.210;5.772;2023-04-24T03:46:02;2.88;;;2.67;;
56477;SDS011;42382;53.210;5.772;2023-04-24T03:48:31;6.22;;;2.40;;
56477;SDS011;42382;53.210;5.772;2023-04-24T03:50:57;4.43;;;2.38;;
56477;SDS011;42382;53.210;5.772;2023-04-24T03:53:23;4.35;;;3.20;;
56477;SDS011;42382;53.210;5.772;2023-04-24T03:55:48;3.03;;;2.20;;
56477;SDS011;42382;53.210;5.772;2023-04-24T03:58:14;4.28;;;2.53;;
56477;SDS011;42382;53.210;5.772;2023-04-24T04:00:40;2.50;;;2.13;;
56477;SDS011;42382;53.210;5.772;2023-04-24T04:03:05;3.13;;;1.70;;
56477;SDS011;42382;53.210;5.772;2023-04-24T04:05:31;2.90;;;2.30;;
56477;SDS011;42382;53.210;5.772;2023-04-24T04:07:57;5.43;;;3.38;;
56477;SDS011;42382;53.210;5.772;2023-04-24T04:10:22;7.13;;;4.35;;
56477;SDS011;42382;53.210;5.772;2023-04-24T04:12:48;6.78;;;4.50;;
56477;SDS011;42382;53.210;5.772;2023-04-24T04:15:14;6.10;;;4.82;;
56477;SDS011;42382;53.210;5.772;2023-04-24T04:17:40;6.95;;;4.63;;
56477;SDS011;42382;53.210;5.772;2023-04-24T04:20:05;6.15;;;4.63;;
56477;SDS011;42382;53.210;5.772;2023-04-24T04:22:34;4.30;;;3.35;;
56477;SDS011;42382;53.210;5.772;2023-04-24T04:25:00;7.32;;;2.90;;
56477;SDS011;42382;53.210;5.772;2023-04-24T04:27:26;4.45;;;2.17;;
56477;SDS011;42382;53.210;5.772;2023-04-24T04:29:53;4.45;;;1.98;;
56477;SDS011;42382;53.210;5.772;2023-04-24T04:32:19;2.55;;;1.40;;
56477;SDS011;42382;53.210;5.772;2023-04-24T04:34:44;0.60;;;0.30;;
56477;SDS011;42382;53.210;5.772;2023-04-24T04:37:14;2.05;;;0.30;;
56477;SDS011;42382;53.210;5.772;2023-04-24T04:39:39;1.90;;;0.50;;
56477;SDS011;42382;53.210;5.772;2023-04-24T04:42:05;3.83;;;1.10;;
56477;SDS011;42382;53.210;5.772;2023-04-24T04:44:31;4.85;;;1.83;;
56477;SDS011;42382;53.210;5.772;2023-04-24T04:46:57;7.97;;;3.58;;
56477;SDS011;42382;53.210;5.772;2023-04-24T04:49:24;9.55;;;4.93;;
56477;SDS011;42382;53.210;5.772;2023-04-24T04:51:49;10.63;;;5.82;;
56477;SDS011;42382;53.210;5.772;2023-04-24T04:54:16;10.50;;;6.38;;
56477;SDS011;42382;53.210;5.772;2023-04-24T04:56:41;15.27;;;7.03;;
56477;SDS011;42382;53.210;5.772;2023-04-24T04:59:07;15.77;;;7.10;;
56477;SDS011;42382;53.210;5.772;2023-04-24T05:01:32;12.73;;;6.30;;
56477;SDS011;42382;53.210;5.772;2023-04-24T05:03:58;12.20;;;6.25;;
56477;SDS011;42382;53.210;5.772;2023-04-24T05:06:24;13.23;;;6.28;;
56477;SDS011;42382;53.210;5.772;2023-04-24T05:08:50;12.02;;;5.55;;
56477;SDS011;42382;53.210;5.772;2023-04-24T05:11:16;7.13;;;4.15;;
56477;SDS011;42382;53.210;5.772;2023-04-24T05:13:41;3.25;;;2.65;;
56477;SDS011;42382;53.210;5.772;2023-04-24T05:16:07;5.40;;;1.60;;
56477;SDS011;42382;53.210;5.772;2023-04-24T05:18:33;4.20;;;1.80;;
56477;SDS011;42382;53.210;5.772;2023-04-24T05:20:58;2.08;;;1.10;;
56477;SDS011;42382;53.210;5.772;2023-04-24T05:23:25;5.97;;;1.65;;
56477;SDS011;42382;53.210;5.772;2023-04-24T05:25:50;3.53;;;1.50;;
56477;SDS011;42382;53.210;5.772;2023-04-24T05:28:16;3.20;;;1.80;;
56477;SDS011;42382;53.210;5.772;2023-04-24T05:30:41;2.50;;;1.58;;
56477;SDS011;42382;53.210;5.772;2023-04-24T05:33:07;4.25;;;1.85;;
56477;SDS011;42382;53.210;5.772;2023-04-24T05:35:34;3.97;;;2.22;;
56477;SDS011;42382;53.210;5.772;2023-04-24T05:37:59;4.50;;;2.10;;
56477;SDS011;42382;53.210;5.772;2023-04-24T05:40:25;6.85;;;2.63;;
56477;SDS011;42382;53.210;5.772;2023-04-24T05:42:50;7.85;;;1.90;;
56477;SDS011;42382;53.210;5.772;2023-04-24T05:45:16;4.85;;;1.67;;
56477;SDS011;42382;53.210;5.772;2023-04-24T05:47:42;2.38;;;1.13;;
56477;SDS011;42382;53.210;5.772;2023-04-24T05:50:09;4.70;;;0.90;;
56477;SDS011;42382;53.210;5.772;2023-04-24T05:52:35;2.70;;;0.90;;
56477;SDS011;42382;53.210;5.772;2023-04-24T05:55:01;4.63;;;1.10;;
56477;SDS011;42382;53.210;5.772;2023-04-24T05:57:26;1.25;;;0.73;;
56477;SDS011;42382;53.210;5.772;2023-04-24T05:59:52;4.15;;;1.73;;
56477;SDS011;42382;53.210;5.772;2023-04-24T06:02:17;3.00;;;0.60;;
56477;SDS011;42382;53.210;5.772;2023-04-24T06:04:43;6.65;;;2.80;;
56477;SDS011;42382;53.210;5.772;2023-04-24T06:07:10;4.32;;;0.63;;
56477;SDS011;42382;53.210;5.772;2023-04-24T06:09:36;5.03;;;0.80;;
56477;SDS011;42382;53.210;5.772;2023-04-24T06:12:02;1.75;;;0.40;;
56477;SDS011;42382;53.210;5.772;2023-04-24T06:14:27;3.65;;;0.68;;
56477;SDS011;42382;53.210;5.772;2023-04-24T06:16:53;6.93;;;0.75;;
56477;SDS011;42382;53.210;5.772;2023-04-24T06:19:19;2.42;;;0.80;;
56477;SDS011;42382;53.210;5.772;2023-04-24T06:21:44;4.05;;;1.35;;
56477;SDS011;42382;53.210;5.772;2023-04-24T06:24:10;7.38;;;2.17;;
56477;SDS011;42382;53.210;5.772;2023-04-24T06:26:36;5.93;;;2.90;;
56477;SDS011;42382;53.210;5.772;2023-04-24T06:29:01;11.95;;;5.13;;
56477;SDS011;42382;53.210;5.772;2023-04-24T06:31:27;16.00;;;8.40;;
56477;SDS011;42382;53.210;5.772;2023-04-24T06:33:53;20.83;;;9.52;;
56477;SDS011;42382;53.210;5.772;2023-04-24T06:36:19;23.13;;;10.30;;
56477;SDS011;42382;53.210;5.772;2023-04-24T06:38:44;20.88;;;11.27;;
56477;SDS011;42382;53.210;5.772;2023-04-24T06:41:10;24.13;;;12.40;;
56477;SDS011;42382;53.210;5.772;2023-04-24T06:43:38;22.63;;;12.25;;
56477;SDS011;42382;53.210;5.772;2023-04-24T06:46:04;23.42;;;11.55;;
56477;SDS011;42382;53.210;5.772;2023-04-24T06:48:29;24.30;;;11.43;;
56477;SDS011;42382;53.210;5.772;2023-04-24T06:50:55;16.77;;;9.35;;
56477;SDS011;42382;53.210;5.772;2023-04-24T06:53:21;13.30;;;8.05;;
56477;SDS011;42382;53.210;5.772;2023-04-24T06:55:46;14.60;;;8.73;;
56477;SDS011;42382;53.210;5.772;2023-04-24T06:58:12;17.60;;;8.70;;
56477;SDS011;42382;53.210;5.772;2023-04-24T07:00:38;18.95;;;8.80;;
56477;SDS011;42382;53.210;5.772;2023-04-24T07:03:03;16.98;;;9.32;;
56477;SDS011;42382;53.210;5.772;2023-04-24T07:05:32;18.05;;;9.85;;
56477;SDS011;42382;53.210;5.772;2023-04-24T07:08:00;23.30;;;11.55;;
56477;SDS011;42382;53.210;5.772;2023-04-24T07:10:26;26.13;;;11.95;;
56477;SDS011;42382;53.210;5.772;2023-04-24T07:12:53;25.23;;;12.85;;
56477;SDS011;42382;53.210;5.772;2023-04-24T07:15:21;26.95;;;13.90;;
56477;SDS011;42382;53.210;5.772;2023-04-24T07:17:46;20.90;;;11.95;;
56477;SDS011;42382;53.210;5.772;2023-04-24T07:20:12;21.02;;;12.98;;
56477;SDS011;42382;53.210;5.772;2023-04-24T07:22:39;26.52;;;12.93;;
56477;SDS011;42382;53.210;5.772;2023-04-24T07:25:05;20.23;;;11.50;;
56477;SDS011;42382;53.210;5.772;2023-04-24T07:27:32;25.15;;;11.30;;
56477;SDS011;42382;53.210;5.772;2023-04-24T07:29:59;24.02;;;10.68;;
56477;SDS011;42382;53.210;5.772;2023-04-24T07:32:24;15.20;;;8.70;;
56477;SDS011;42382;53.210;5.772;2023-04-24T07:34:50;17.63;;;8.38;;
56477;SDS011;42382;53.210;5.772;2023-04-24T07:37:15;15.13;;;6.50;;
56477;SDS011;42382;53.210;5.772;2023-04-24T07:39:41;11.90;;;6.40;;
56477;SDS011;42382;53.210;5.772;2023-04-24T07:42:07;13.02;;;6.38;;
56477;SDS011;42382;53.210;5.772;2023-04-24T07:44:33;14.50;;;6.00;;
56477;SDS011;42382;53.210;5.772;2023-04-24T07:46:58;11.45;;;6.30;;
56477;SDS011;42382;53.210;5.772;2023-04-24T07:49:24;11.30;;;5.13;;
56477;SDS011;42382;53.210;5.772;2023-04-24T07:51:50;11.68;;;4.88;;
56477;SDS011;42382;53.210;5.772;2023-04-24T07:54:15;12.52;;;5.20;;
56477;SDS011;42382;53.210;5.772;2023-04-24T07:56:41;10.75;;;5.28;;
56477;SDS011;42382;53.210;5.772;2023-04-24T07:59:08;9.40;;;4.65;;
56477;SDS011;42382;53.210;5.772;2023-04-24T08:01:35;6.85;;;4.05;;
56477;SDS011;42382;53.210;5.772;2023-04-24T08:04:01;13.68;;;5.00;;
56477;SDS011;42382;53.210;5.772;2023-04-24T08:06:27;13.50;;;5.25;;
56477;SDS011;42382;53.210;5.772;2023-04-24T08:08:55;8.68;;;3.80;;
56477;SDS011;42382;53.210;5.772;2023-04-24T08:11:22;9.48;;;4.25;;
56477;SDS011;42382;53.210;5.772;2023-04-24T08:13:47;11.52;;;4.55;;
56477;SDS011;42382;53.210;5.772;2023-04-24T08:16:13;8.50;;;3.85;;
56477;SDS011;42382;53.210;5.772;2023-04-24T08:18:38;19.17;;;5.32;;
56477;SDS011;42382;53.210;5.772;2023-04-24T08:21:04;15.80;;;4.85;;
56477;SDS011;42382;53.210;5.772;2023-04-24T08:23:30;15.27;;;5.18;;
56477;SDS011;42382;53.210;5.772;2023-04-24T08:25:55;10.50;;;4.82;;
56477;SDS011;42382;53.210;5.772;2023-04-24T08:28:22;10.73;;;4.70;;
56477;SDS011;42382;53.210;5.772;2023-04-24T08:30:47;11.50;;;4.63;;
56477;SDS011;42382;53.210;5.772;2023-04-24T08:33:13;15.30;;;5.20;;
56477;SDS011;42382;53.210;5.772;2023-04-24T08:35:40;11.02;;;3.83;;
56477;SDS011;42382;53.210;5.772;2023-04-24T08:38:05;12.93;;;4.22;;
56477;SDS011;42382;53.210;5.772;2023-04-24T08:40:31;15.82;;;3.75;;
56477;SDS011;42382;53.210;5.772;2023-04-24T08:42:59;13.85;;;4.25;;
56477;SDS011;42382;53.210;5.772;2023-04-24T08:45:25;12.75;;;3.40;;
56477;SDS011;42382;53.210;5.772;2023-04-24T08:47:52;9.10;;;3.08;;
56477;SDS011;42382;53.210;5.772;2023-04-24T08:50:19;15.45;;;3.28;;
56477;SDS011;42382;53.210;5.772;2023-04-24T08:52:47;10.88;;;2.33;;
56477;SDS011;42382;53.210;5.772;2023-04-24T08:55:14;7.50;;;1.90;;
56477;SDS011;42382;53.210;5.772;2023-04-24T08:57:43;6.75;;;2.17;;
56477;SDS011;42382;53.210;5.772;2023-04-24T09:00:10;7.97;;;2.40;;
56477;SDS011;42382;53.210;5.772;2023-04-24T09:02:38;10.75;;;3.53;;
56477;SDS011;42382;53.210;5.772;2023-04-24T09:05:07;7.70;;;2.55;;
56477;SDS011;42382;53.210;5.772;2023-04-24T09:07:33;14.25;;;3.15;;
56477;SDS011;42382;53.210;5.772;2023-04-24T09:10:01;15.50;;;3.17;;
56477;SDS011;42382;53.210;5.772;2023-04-24T09:12:27;10.80;;;2.72;;
56477;SDS011;42382;53.210;5.772;2023-04-24T09:14:53;10.18;;;2.53;;
56477;SDS011;42382;53.210;5.772;2023-04-24T09:17:20;9.27;;;1.88;;
56477;SDS011;42382;53.210;5.772;2023-04-24T09:19:47;8.77;;;1.52;;
56477;SDS011;42382;53.210;5.772;2023-04-24T09:22:15;10.27;;;1.63;;
56477;SDS011;42382;53.210;5.772;2023-04-24T09:24:41;6.45;;;1.52;;
56477;SDS011;42382;53.210;5.772;2023-04-24T09:27:06;11.10;;;2.03;;
56477;SDS011;42382;53.210;5.772;2023-04-24T09:29:32;8.35;;;1.33;;
56477;SDS011;42382;53.210;5.772;2023-04-24T09:31:58;9.68;;;1.45;;
56477;SDS011;42382;53.210;5.772;2023-04-24T09:34:42;7.95;;;1.73;;
56477;SDS011;42382;53.210;5.772;2023-04-24T09:37:08;9.23;;;2.03;;
56477;SDS011;42382;53.210;5.772;2023-04-24T09:39:34;12.38;;;2.42;;
56477;SDS011;42382;53.210;5.772;2023-04-24T09:42:00;9.40;;;1.58;;
56477;SDS011;42382;53.210;5.772;2023-04-24T09:44:27;6.85;;;1.08;;
56477;SDS011;42382;53.210;5.772;2023-04-24T09:46:54;8.77;;;1.67;;
56477;SDS011;42382;53.210;5.772;2023-04-24T09:49:24;8.63;;;1.45;;
56477;SDS011;42382;53.210;5.772;2023-04-24T09:52:07;10.55;;;1.20;;
56477;SDS011;42382;53.210;5.772;2023-04-24T09:54:35;7.72;;;1.13;;
56477;SDS011;42382;53.210;5.772;2023-04-24T09:57:04;9.35;;;1.45;;
56477;SDS011;42382;53.210;5.772;2023-04-24T09:59:32;8.60;;;1.20;;
56477;SDS011;42382;53.210;5.772;2023-04-24T10:01:58;9.18;;;1.15;;
56477;SDS011;42382;53.210;5.772;2023-04-24T10:04:28;7.35;;;1.20;;
56477;SDS011;42382;53.210;5.772;2023-04-24T10:06:54;10.20;;;1.85;;
56477;SDS011;42382;53.210;5.772;2023-04-24T10:09:22;7.57;;;1.10;;
56477;SDS011;42382;53.210;5.772;2023-04-24T10:11:49;11.25;;;1.10;;
56477;SDS011;42382;53.210;5.772;2023-04-24T10:14:18;8.82;;;0.63;;
56477;SDS011;42382;53.210;5.772;2023-04-24T10:16:48;5.60;;;1.02;;
56477;SDS011;42382;53.210;5.772;2023-04-24T10:19:15;10.75;;;1.27;;
56477;SDS011;42382;53.210;5.772;2023-04-24T10:21:43;8.40;;;0.63;;
56477;SDS011;42382;53.210;5.772;2023-04-24T10:24:13;8.85;;;0.90;;
56477;SDS011;42382;53.210;5.772;2023-04-24T10:26:43;6.85;;;1.17;;
56477;SDS011;42382;53.210;5.772;2023-04-24T10:29:11;10.25;;;1.33;;
56477;SDS011;42382;53.210;5.772;2023-04-24T10:31:37;10.98;;;1.10;;
56477;SDS011;42382;53.210;5.772;2023-04-24T10:34:05;11.45;;;1.58;;
56477;SDS011;42382;53.210;5.772;2023-04-24T10:36:32;12.38;;;1.95;;
56477;SDS011;42382;53.210;5.772;2023-04-24T10:39:03;9.10;;;0.90;;
56477;SDS011;42382;53.210;5.772;2023-04-24T10:41:33;13.73;;;1.55;;
56477;SDS011;42382;53.210;5.772;2023-04-24T10:44:05;9.52;;;1.25;;
56477;SDS011;42382;53.210;5.772;2023-04-24T10:51:44;9.15;;;0.93;;
56477;SDS011;42382;53.210;5.772;2023-04-24T10:54:23;6.38;;;0.60;;
56477;SDS011;42382;53.210;5.772;2023-04-24T10:56:51;7.20;;;0.68;;
56477;SDS011;42382;53.210;5.772;2023-04-24T10:59:24;4.82;;;0.43;;
56477;SDS011;42382;53.210;5.772;2023-04-24T11:01:54;4.00;;;0.30;;
56477;SDS011;42382;53.210;5.772;2023-04-24T11:04:30;10.77;;;0.70;;
56477;SDS011;42382;53.210;5.772;2023-04-24T11:06:56;4.80;;;0.35;;
56477;SDS011;42382;53.210;5.772;2023-04-24T11:09:22;8.00;;;0.70;;
56477;SDS011;42382;53.210;5.772;2023-04-24T11:12:05;8.00;;;0.40;;
56477;SDS011;42382;53.210;5.772;2023-04-24T11:17:32;6.32;;;0.63;;
56477;SDS011;42382;53.210;5.772;2023-04-24T11:20:11;4.32;;;0.40;;
56477;SDS011;42382;53.210;5.772;2023-04-24T11:22:41;7.53;;;0.60;;
56477;SDS011;42382;53.210;5.772;2023-04-24T11:25:07;1.27;;;0.30;;
56477;SDS011;42382;53.210;5.772;2023-04-24T11:27:41;3.85;;;0.30;;
56477;SDS011;42382;53.210;5.772;2023-04-24T11:30:08;4.80;;;0.50;;
56477;SDS011;42382;53.210;5.772;2023-04-24T11:32:39;4.68;;;0.40;;
56477;SDS011;42382;53.210;5.772;2023-04-24T11:35:07;5.75;;;0.60;;
56477;SDS011;42382;53.210;5.772;2023-04-24T11:37:37;5.18;;;0.60;;
56477;SDS011;42382;53.210;5.772;2023-04-24T11:40:05;8.82;;;0.65;;
56477;SDS011;42382;53.210;5.772;2023-04-24T11:42:40;6.20;;;0.70;;
56477;SDS011;42382;53.210;5.772;2023-04-24T11:45:09;10.02;;;0.70;;
56477;SDS011;42382;53.210;5.772;2023-04-24T11:47:39;5.40;;;0.88;;
56477;SDS011;42382;53.210;5.772;2023-04-24T11:50:07;5.63;;;0.95;;
56477;SDS011;42382;53.210;5.772;2023-04-24T11:52:37;6.40;;;0.57;;
56477;SDS011;42382;53.210;5.772;2023-04-24T11:55:24;4.63;;;0.52;;
56477;SDS011;42382;53.210;5.772;2023-04-24T11:57:55;5.38;;;0.20;;
56477;SDS011;42382;53.210;5.772;2023-04-24T12:00:26;4.07;;;0.55;;
56477;SDS011;42382;53.210;5.772;2023-04-24T12:03:03;3.75;;;0.30;;
56477;SDS011;42382;53.210;5.772;2023-04-24T12:05:31;11.25;;;1.27;;
56477;SDS011;42382;53.210;5.772;2023-04-24T12:07:56;7.50;;;0.50;;
56477;SDS011;42382;53.210;5.772;2023-04-24T12:10:23;3.70;;;0.40;;
56477;SDS011;42382;53.210;5.772;2023-04-24T12:12:53;4.22;;;0.75;;
56477;SDS011;42382;53.210;5.772;2023-04-24T12:15:21;6.30;;;0.90;;
56477;SDS011;42382;53.210;5.772;2023-04-24T12:17:47;4.18;;;0.20;;
56477;SDS011;42382;53.210;5.772;2023-04-24T12:20:15;4.07;;;0.55;;
56477;SDS011;42382;53.210;5.772;2023-04-24T12:22:45;4.70;;;0.30;;
56477;SDS011;42382;53.210;5.772;2023-04-24T12:25:12;6.35;;;0.30;;
56477;SDS011;42382;53.210;5.772;2023-04-24T12:27:39;3.97;;;0.52;;
56477;SDS011;42382;53.210;5.772;2023-04-24T12:30:05;6.05;;;0.50;;
56477;SDS011;42382;53.210;5.772;2023-04-24T12:32:40;3.05;;;0.20;;
56477;SDS011;42382;53.210;5.772;2023-04-24T12:35:07;5.57;;;0.35;;
56477;SDS011;42382;53.210;5.772;2023-04-24T12:37:33;5.70;;;0.32;;
56477;SDS011;42382;53.210;5.772;2023-04-24T12:40:02;4.50;;;0.40;;
56477;SDS011;42382;53.210;5.772;2023-04-24T12:42:32;3.65;;;0.47;;
56477;SDS011;42382;53.210;5.772;2023-04-24T12:45:01;5.55;;;0.40;;
56477;SDS011;42382;53.210;5.772;2023-04-24T12:47:29;4.38;;;0.57;;
56477;SDS011;42382;53.210;5.772;2023-04-24T12:49:55;4.55;;;0.38;;
56477;SDS011;42382;53.210;5.772;2023-04-24T12:52:25;5.32;;;0.40;;
56477;SDS011;42382;53.210;5.772;2023-04-24T12:54:54;3.95;;;0.50;;
56477;SDS011;42382;53.210;5.772;2023-04-24T12:57:24;7.72;;;1.05;;
56477;SDS011;42382;53.210;5.772;2023-04-24T12:59:55;2.38;;;0.20;;
56477;SDS011;42382;53.210;5.772;2023-04-24T13:02:25;6.20;;;1.23;;
56477;SDS011;42382;53.210;5.772;2023-04-24T13:04:54;7.55;;;0.80;;
56477;SDS011;42382;53.210;5.772;2023-04-24T13:07:20;10.70;;;0.80;;
56477;SDS011;42382;53.210;5.772;2023-04-24T13:09:47;8.65;;;0.73;;
56477;SDS011;42382;53.210;5.772;2023-04-24T13:12:14;10.90;;;1.08;;
56477;SDS011;42382;53.210;5.772;2023-04-24T13:14:40;9.10;;;1.75;;
56477;SDS011;42382;53.210;5.772;2023-04-24T13:17:06;12.98;;;2.28;;
56477;SDS011;42382;53.210;5.772;2023-04-24T13:19:38;9.63;;;1.55;;
56477;SDS011;42382;53.210;5.772;2023-04-24T13:22:06;10.25;;;1.25;;
56477;SDS011;42382;53.210;5.772;2023-04-24T13:24:34;12.35;;;1.52;;
56477;SDS011;42382;53.210;5.772;2023-04-24T13:26:59;11.25;;;1.33;;
56477;SDS011;42382;53.210;5.772;2023-04-24T13:29:26;20.40;;;8.43;;
56477;SDS011;42382;53.210;5.772;2023-04-24T13:31:52;9.77;;;1.65;;
56477;SDS011;42382;53.210;5.772;2023-04-24T13:34:20;6.45;;;0.80;;
56477;SDS011;42382;53.210;5.772;2023-04-24T13:36:46;7.32;;;0.50;;
56477;SDS011;42382;53.210;5.772;2023-04-24T13:39:12;6.57;;;0.88;;
56477;SDS011;42382;53.210;5.772;2023-04-24T13:41:37;4.60;;;0.40;;
56477;SDS011;42382;53.210;5.772;2023-04-24T13:44:03;6.30;;;1.02;;
56477;SDS011;42382;53.210;5.772;2023-04-24T13:46:29;10.20;;;1.30;;
56477;SDS011;42382;53.210;5.772;2023-04-24T13:48:56;8.57;;;0.90;;
56477;SDS011;42382;53.210;5.772;2023-04-24T13:51:22;8.18;;;0.93;;
56477;SDS011;42382;53.210;5.772;2023-04-24T13:53:48;14.55;;;1.20;;
56477;SDS011;42382;53.210;5.772;2023-04-24T13:56:14;11.80;;;1.65;;
56477;SDS011;42382;53.210;5.772;2023-04-24T13:58:39;8.18;;;0.68;;
56477;SDS011;42382;53.210;5.772;2023-04-24T14:01:05;14.60;;;1.45;;
56477;SDS011;42382;53.210;5.772;2023-04-24T14:03:31;9.15;;;1.20;;
56477;SDS011;42382;53.210;5.772;2023-04-24T14:05:58;11.50;;;1.35;;
56477;SDS011;42382;53.210;5.772;2023-04-24T14:08:24;10.63;;;1.20;;
56477;SDS011;42382;53.210;5.772;2023-04-24T14:10:50;11.60;;;1.75;;
56477;SDS011;42382;53.210;5.772;2023-04-24T14:13:16;12.23;;;2.40;;
56477;SDS011;42382;53.210;5.772;2023-04-24T14:15:42;9.55;;;1.73;;
56477;SDS011;42382;53.210;5.772;2023-04-24T14:18:08;12.43;;;1.90;;
56477;SDS011;42382;53.210;5.772;2023-04-24T14:20:33;8.30;;;1.25;;
56477;SDS011;42382;53.210;5.772;2023-04-24T14:22:59;13.52;;;1.85;;
56477;SDS011;42382;53.210;5.772;2023-04-24T14:25:25;14.02;;;2.15;;
56477;SDS011;42382;53.210;5.772;2023-04-24T14:27:51;10.55;;;1.73;;
56477;SDS011;42382;53.210;5.772;2023-04-24T14:30:17;11.48;;;1.80;;
56477;SDS011;42382;53.210;5.772;2023-04-24T14:32:43;13.98;;;1.70;;
56477;SDS011;42382;53.210;5.772;2023-04-24T14:35:08;10.88;;;1.40;;
56477;SDS011;42382;53.210;5.772;2023-04-24T14:37:34;11.55;;;2.05;;
56477;SDS011;42382;53.210;5.772;2023-04-24T14:40:01;13.40;;;1.60;;
56477;SDS011;42382;53.210;5.772;2023-04-24T14:42:27;13.23;;;1.92;;
56477;SDS011;42382;53.210;5.772;2023-04-24T14:44:53;7.35;;;1.33;;
56477;SDS011;42382;53.210;5.772;2023-04-24T14:47:20;13.05;;;2.05;;
56477;SDS011;42382;53.210;5.772;2023-04-24T14:49:48;9.00;;;1.52;;